Ehrenberg, Arizona
Current Conditions -  °F | °C
As of 1:52 AM on Monday 22 Dec 2014 (Local Time) from KBLH Reporting Station
Clear Clear  
Wind Chill: 47°   Ceiling: Unl
Heat Index: 49°   Visibility: 10mi
Dew Point: 47°   Wind: 5mph
Humidity: 93%   Direction: 340°NNW
Pressure: 30.04"   Gusts: NA
Location:  33.6°N, 114.52°W
Report Text: KBLH 220852Z AUTO 34004KT 10SM CLR 09/08 A3004 RMK AO2 SLP169 T00940083 58004
Loading
Personal Weather Stations






























Interactive Weather Map New forecast layout! Learn more

10-Day Weather Forecast

Advertisements
Track Severe Weather on mobile